Time;durP1;ratioP1;P1;durP2;ratioP2;P2;SDS_P1;SDS_P2;PMS_P1;PMS_P2;Temp;Humidity;BMP_temperature;BMP_pressure;BME280_temperature;BME280_humidity;BME280_pressure;Samples;Min_cycle;Max_cycle;Signal;HPM_P1;HPM_P2
2022/08/23 00:01:22;;;;;;;1.08;0.98;;;26.10;48.60;25.20;101065.00;;;;5075060;28;20470;-72
2022/08/23 00:04:16;;;;;;;3.33;1.15;;;26.20;48.70;25.20;101066.00;;;;5066087;28;20036;-72
2022/08/23 00:07:04;;;;;;;1.38;1.27;;;26.20;48.60;25.20;101058.00;;;;5073284;28;20055;-72
2022/08/23 00:09:50;;;;;;;;;;;26.20;48.70;25.20;101058.00;;;;5071247;28;20036;-72
2022/08/23 00:12:36;;;;;;;1.63;1.27;;;26.20;48.60;25.20;101069.00;;;;5087642;28;19911;-72
2022/08/23 00:15:22;;;;;;;2.40;1.33;;;26.20;48.60;25.20;101063.00;;;;5070200;28;20493;-72
2022/08/23 00:18:08;;;;;;;3.25;1.58;;;26.20;48.60;25.20;101062.00;;;;5092989;28;20044;-72
2022/08/23 00:20:55;;;;;;;1.75;1.27;;;26.20;48.60;25.20;101058.00;;;;5069620;28;20517;-72
2022/08/23 00:23:41;;;;;;;1.90;1.40;;;26.20;48.70;25.20;101057.00;;;;5085232;28;20492;-72
2022/08/23 00:27:06;;;;;;;2.35;1.27;;;26.20;48.70;25.20;101053.00;;;;5090485;28;20031;-72
2022/08/23 00:29:53;;;;;;;1.40;1.20;;;26.10;48.70;25.20;101058.00;;;;5078170;28;20123;-72
2022/08/23 00:32:40;;;;;;;1.50;1.30;;;26.20;48.70;25.20;101053.00;;;;5074557;28;20089;-72
2022/08/23 00:35:26;;;;;;;1.73;1.10;;;26.10;48.60;25.20;101052.00;;;;5075971;28;20041;-72
2022/08/23 00:38:12;;;;;;;2.17;1.52;;;26.20;48.70;25.20;101040.00;;;;5078638;28;20036;-72
2022/08/23 00:40:58;;;;;;;1.48;1.30;;;26.20;48.70;25.20;101045.00;;;;5077746;28;20408;-72
2022/08/23 00:47:53;;;;;;;1.88;1.42;;;26.10;48.70;25.20;101045.00;;;;5075856;28;20098;-72
2022/08/23 00:50:14;;;;;;;3.65;1.45;;;26.10;48.70;25.10;101044.00;;;;5072049;28;20310;-72
2022/08/23 00:53:05;;;;;;;1.85;1.40;;;26.10;48.70;25.20;101039.00;;;;5084836;28;20035;-72
2022/08/23 00:55:56;;;;;;;1.52;1.10;;;26.10;48.80;25.20;101038.00;;;;5087216;28;20497;-72
2022/08/23 00:58:44;;;;;;;2.03;1.35;;;26.10;48.70;25.20;101033.00;;;;5072051;28;20044;-72
2022/08/23 01:01:31;;;;;;;1.75;1.27;;;26.10;48.70;25.20;101035.00;;;;5063873;28;20044;-72
2022/08/23 01:04:17;;;;;;;1.40;1.30;;;26.10;48.70;25.20;101032.00;;;;5065397;28;20045;-72
2022/08/23 01:07:08;;;;;;;1.48;1.33;;;26.10;48.80;25.20;101026.00;;;;5058367;28;20083;-72
2022/08/23 01:09:57;;;;;;;1.50;1.40;;;26.10;48.80;25.20;101031.00;;;;5058621;28;20108;-72
2022/08/23 01:12:48;;;;;;;1.42;1.30;;;26.10;48.80;25.20;101034.00;;;;5070339;28;20097;-72
2022/08/23 01:15:47;;;;;;;1.83;1.50;;;26.10;48.80;25.10;101023.00;;;;5073693;28;20047;-72
2022/08/23 01:18:33;;;;;;;2.53;1.42;;;26.10;48.80;25.20;101017.00;;;;5059461;28;20041;-72
2022/08/23 01:21:33;;;;;;;1.58;1.38;;;26.10;48.80;25.10;101021.00;;;;5065708;28;20063;-72
2022/08/23 01:24:19;;;;;;;1.70;1.30;;;26.10;48.80;25.10;101015.00;;;;5075867;28;20046;-72
2022/08/23 01:27:05;;;;;;;1.90;1.38;;;26.10;48.80;25.10;101020.00;;;;5070037;28;20040;-72
2022/08/23 01:29:51;;;;;;;1.77;1.25;;;26.10;48.90;25.10;101023.00;;;;5078039;28;20448;-72
2022/08/23 01:32:45;;;;;;;2.65;1.35;;;26.10;48.90;25.10;101020.00;;;;5084805;28;20036;-72
2022/08/23 01:35:47;;;;;;;1.65;1.30;;;26.10;48.90;25.10;101032.00;;;;5072168;28;20055;-72
2022/08/23 01:38:33;;;;;;;2.05;1.20;;;26.10;48.90;25.10;101025.00;;;;5069332;28;20051;-72
2022/08/23 01:41:19;;;;;;;1.30;1.20;;;26.10;48.90;25.10;101027.00;;;;5084521;28;20126;-72
2022/08/23 01:44:06;;;;;;;2.45;1.48;;;26.00;48.90;25.10;101024.00;;;;5068388;28;20115;-72
2022/08/23 01:46:52;;;;;;;3.50;1.33;;;26.00;48.90;25.10;101019.00;;;;5084752;28;20036;-72
2022/08/23 01:49:38;;;;;;;2.45;1.75;;;26.10;49.00;25.10;101024.00;;;;5059905;28;20482;-72
2022/08/23 01:52:24;;;;;;;1.50;1.40;;;26.00;49.00;25.10;101027.00;;;;5078810;28;20040;-72
2022/08/23 01:55:10;;;;;;;1.80;1.60;;;26.00;49.00;25.10;101029.00;;;;5066467;28;20105;-72
2022/08/23 01:58:07;;;;;;;1.70;1.48;;;26.00;49.00;25.10;101032.00;;;;5094752;28;20108;-72
2022/08/23 02:00:53;;;;;;;2.23;1.60;;;26.00;49.00;25.10;101033.00;;;;5069949;28;20045;-72
2022/08/23 02:03:39;;;;;;;2.17;1.35;;;26.00;49.10;25.10;101036.00;;;;5083898;28;20535;-72
2022/08/23 02:06:26;;;;;;;1.45;1.23;;;26.00;49.00;25.10;101030.00;;;;5083771;28;20160;-72
2022/08/23 02:09:12;;;;;;;2.78;2.40;;;26.00;49.10;25.10;101038.00;;;;5063490;28;20036;-72
2022/08/23 02:11:58;;;;;;;1.95;1.40;;;26.00;49.10;25.10;101033.00;;;;5091428;28;20508;-72
2022/08/23 02:14:44;;;;;;;1.55;1.40;;;26.00;49.10;25.10;101028.00;;;;5081862;28;20044;-72
2022/08/23 02:17:30;;;;;;;1.65;1.40;;;26.00;49.10;25.10;101024.00;;;;5069566;28;20398;-72
2022/08/23 02:20:16;;;;;;;1.27;1.17;;;25.90;49.00;25.10;101028.00;;;;5086237;28;20035;-72
2022/08/23 02:23:02;;;;;;;1.52;1.42;;;26.00;49.00;25.10;101033.00;;;;5072878;28;20476;-72
2022/08/23 02:25:50;;;;;;;1.20;1.10;;;26.10;49.10;25.10;101028.00;;;;5076635;28;20067;-72
2022/08/23 02:28:36;;;;;;;2.95;1.50;;;26.00;49.00;25.10;101028.00;;;;5083347;28;20061;-72
2022/08/23 02:31:22;;;;;;;1.60;1.45;;;26.00;49.00;25.10;101031.00;;;;5089388;28;20039;-72
2022/08/23 02:34:10;;;;;;;2.25;1.85;;;26.00;49.00;25.10;101033.00;;;;5092295;28;20104;-72
2022/08/23 02:36:56;;;;;;;1.75;1.55;;;26.00;49.00;25.10;101032.00;;;;5090394;28;20040;-72
2022/08/23 02:39:42;;;;;;;1.40;1.30;;;26.00;49.00;25.10;101037.00;;;;5080350;28;20055;-72
2022/08/23 02:42:28;;;;;;;2.25;1.63;;;26.00;49.00;25.10;101029.00;;;;5070632;28;20036;-72
2022/08/23 02:45:16;;;;;;;1.90;1.55;;;25.90;49.00;25.10;101037.00;;;;5085478;28;20070;-72
2022/08/23 02:48:03;;;;;;;1.67;1.35;;;26.00;49.00;25.10;101032.00;;;;5087832;28;20032;-72
2022/08/23 02:50:49;;;;;;;1.40;1.30;;;26.00;49.00;25.10;101036.00;;;;5073621;28;20098;-72
2022/08/23 02:53:35;;;;;;;1.90;1.35;;;26.00;49.00;25.00;101034.00;;;;5087112;28;20040;-72
2022/08/23 02:56:21;;;;;;;1.70;1.55;;;25.90;48.90;25.10;101041.00;;;;5070202;28;20043;-72
2022/08/23 02:59:07;;;;;;;2.23;1.57;;;25.90;49.00;25.00;101034.00;;;;5094279;28;20040;-72
2022/08/23 03:01:53;;;;;;;3.28;1.60;;;26.00;49.00;25.00;101028.00;;;;5081034;28;20044;-72
2022/08/23 03:04:40;;;;;;;1.63;1.52;;;26.00;49.00;25.00;101036.00;;;;5081585;28;20052;-72
2022/08/23 03:07:26;;;;;;;2.10;1.40;;;25.90;48.90;25.00;101028.00;;;;5070700;28;20089;-72
2022/08/23 03:10:12;;;;;;;3.72;1.67;;;25.90;48.90;25.00;101026.00;;;;5084437;28;20032;-72
2022/08/23 03:12:58;;;;;;;1.98;1.70;;;26.00;49.00;25.00;101034.00;;;;5075866;28;20651;-72
2022/08/23 03:15:44;;;;;;;1.83;1.50;;;25.90;48.90;25.00;101033.00;;;;5089596;28;20136;-72
2022/08/23 03:18:30;;;;;;;1.88;1.40;;;25.90;48.90;25.00;101035.00;;;;5084653;28;20481;-72
2022/08/23 03:21:17;;;;;;;2.17;1.50;;;26.00;49.00;25.00;101028.00;;;;5083905;28;20066;-72
2022/08/23 03:24:03;;;;;;;2.97;1.63;;;26.00;48.90;25.00;101028.00;;;;5057719;28;20043;-72
2022/08/23 03:26:50;;;;;;;1.70;1.38;;;25.90;48.80;25.00;101034.00;;;;5080146;28;20043;-72
2022/08/23 03:29:36;;;;;;;1.55;1.45;;;26.00;48.90;25.00;101033.00;;;;5070523;28;20126;-72
2022/08/23 03:32:22;;;;;;;1.88;1.38;;;25.90;48.80;25.00;101033.00;;;;5073605;28;20132;-72
2022/08/23 03:35:08;;;;;;;2.15;1.50;;;26.00;48.90;25.00;101034.00;;;;5087455;28;20081;-72
2022/08/23 03:37:55;;;;;;;1.60;1.50;;;25.90;48.80;25.00;101030.00;;;;5092856;28;20468;-72
2022/08/23 03:40:41;;;;;;;1.75;1.50;;;26.00;48.90;25.00;101031.00;;;;5087573;28;20036;-72
2022/08/23 03:43:27;;;;;;;2.72;1.55;;;25.90;48.90;25.00;101044.00;;;;5075479;28;20070;-72
2022/08/23 03:46:21;;;;;;;1.70;1.45;;;25.90;48.90;25.00;101032.00;;;;5088239;28;20039;-73
2022/08/23 03:49:20;;;;;;;1.67;1.30;;;25.90;48.90;25.00;101042.00;;;;5080226;28;20492;-72
2022/08/23 03:52:06;;;;;;;2.05;1.42;;;26.00;48.90;25.00;101035.00;;;;5075325;28;20042;-72
2022/08/23 03:54:52;;;;;;;2.72;1.65;;;25.90;48.80;25.00;101039.00;;;;5082166;28;20123;-72
2022/08/23 03:57:38;;;;;;;2.72;1.40;;;25.80;48.70;25.00;101037.00;;;;5084446;28;20047;-72
2022/08/23 04:00:24;;;;;;;1.70;1.45;;;25.90;48.70;25.00;101050.00;;;;5069865;28;20048;-72
2022/08/23 04:03:10;;;;;;;1.52;1.33;;;25.90;48.70;25.00;101039.00;;;;5085388;28;20051;-72
2022/08/23 04:05:56;;;;;;;1.55;1.45;;;26.00;48.80;25.00;101041.00;;;;5085897;28;21030;-72
2022/08/23 04:08:43;;;;;;;2.40;1.50;;;25.90;48.70;25.00;101048.00;;;;5074599;28;20036;-72
2022/08/23 04:11:29;;;;;;;1.60;1.42;;;25.90;48.70;25.00;101049.00;;;;5076074;28;20125;-72
2022/08/23 04:14:15;;;;;;;1.25;1.10;;;25.90;48.60;25.00;101058.00;;;;5066053;28;20027;-72
2022/08/23 04:17:01;;;;;;;2.00;1.52;;;25.90;48.60;25.00;101056.00;;;;5085472;28;20036;-73
2022/08/23 04:19:48;;;;;;;1.60;1.48;;;25.90;48.60;25.00;101064.00;;;;5086364;28;20044;-72
2022/08/23 04:22:34;;;;;;;1.65;1.42;;;25.90;48.60;25.00;101054.00;;;;5055573;28;20461;-72
2022/08/23 04:25:20;;;;;;;2.05;1.63;;;25.90;48.70;25.00;101059.00;;;;5075889;28;20539;-72
2022/08/23 04:28:06;;;;;;;1.50;1.25;;;25.80;48.60;25.00;101063.00;;;;5072275;28;20063;-73
2022/08/23 04:30:52;;;;;;;1.83;1.40;;;25.90;48.60;25.00;101066.00;;;;5088501;28;20503;-72
2022/08/23 04:33:38;;;;;;;3.55;1.80;;;25.90;48.60;25.00;101065.00;;;;5060537;28;20032;-72
2022/08/23 04:36:24;;;;;;;1.63;1.50;;;25.90;48.60;25.00;101074.00;;;;5089302;28;20047;-72
2022/08/23 04:39:10;;;;;;;3.30;1.55;;;25.90;48.60;25.00;101069.00;;;;5072264;28;20043;-72
2022/08/23 04:45:01;;;;;;;1.40;1.30;;;25.90;48.60;25.00;101090.00;;;;5085770;28;20036;-72
2022/08/23 04:47:47;;;;;;;1.83;1.25;;;25.90;48.50;25.00;101083.00;;;;5077795;28;20524;-72
2022/08/23 04:50:33;;;;;;;3.13;1.45;;;25.90;48.50;25.00;101076.00;;;;5080333;28;20110;-72
2022/08/23 04:53:19;;;;;;;1.75;1.55;;;25.90;48.50;25.00;101083.00;;;;5072997;28;20478;-72
2022/08/23 04:56:07;;;;;;;1.48;1.38;;;25.80;48.50;25.00;101086.00;;;;5075308;28;20040;-72
2022/08/23 04:58:53;;;;;;;1.27;1.17;;;25.90;48.50;25.00;101084.00;;;;5081746;28;20051;-72
2022/08/23 05:01:41;;;;;;;1.42;1.30;;;25.90;48.50;25.00;101088.00;;;;5072565;28;20055;-72
2022/08/23 05:04:27;;;;;;;2.15;1.60;;;25.90;48.50;25.00;101092.00;;;;5066228;28;20879;-72
2022/08/23 05:07:14;;;;;;;1.38;1.27;;;25.90;48.50;25.00;101092.00;;;;5087764;28;20036;-72
2022/08/23 05:10:00;;;;;;;1.25;1.15;;;25.90;48.50;25.00;101089.00;;;;5067803;28;20398;-72
2022/08/23 05:12:47;;;;;;;1.52;1.42;;;25.80;48.40;25.00;101095.00;;;;5086004;28;20036;-72
2022/08/23 05:15:33;;;;;;;2.43;1.30;;;25.90;48.50;25.00;101086.00;;;;5082279;28;20112;-72
2022/08/23 05:18:19;;;;;;;1.92;1.45;;;25.80;48.40;25.00;101089.00;;;;5084442;28;20293;-72
2022/08/23 05:21:05;;;;;;;1.60;1.25;;;25.90;48.50;25.00;101101.00;;;;5081307;28;20032;-72
2022/08/23 05:23:51;;;;;;;1.48;1.38;;;25.90;48.50;25.00;101100.00;;;;5069149;28;20559;-72
2022/08/23 05:26:37;;;;;;;1.60;1.40;;;25.90;48.50;25.00;101109.00;;;;5073228;28;20043;-72
2022/08/23 05:29:23;;;;;;;1.92;1.70;;;25.90;48.60;25.00;101093.00;;;;5073387;28;20399;-72
2022/08/23 05:32:09;;;;;;;2.45;1.60;;;25.90;48.60;25.00;101110.00;;;;5086561;28;20028;-72
2022/08/23 05:34:55;;;;;;;2.03;1.63;;;25.90;48.70;25.00;101111.00;;;;5074230;28;20416;-72
2022/08/23 05:37:41;;;;;;;2.00;1.70;;;25.90;48.60;25.00;101120.00;;;;5080953;28;20081;-72
2022/08/23 05:40:28;;;;;;;2.08;1.77;;;25.90;48.60;25.00;101122.00;;;;5083984;28;20496;-72
2022/08/23 05:43:14;;;;;;;2.33;1.55;;;25.90;48.60;25.00;101118.00;;;;5070453;28;20050;-72
2022/08/23 05:46:09;;;;;;;2.35;1.40;;;25.90;48.50;25.00;101125.00;;;;5085913;28;20500;-72
2022/08/23 05:48:55;;;;;;;1.55;1.45;;;25.90;48.50;25.00;101125.00;;;;5072111;28;20063;-72
2022/08/23 05:51:42;;;;;;;1.30;1.20;;;25.80;48.50;25.00;101127.00;;;;5083857;28;20059;-72
2022/08/23 05:54:28;;;;;;;2.55;1.40;;;25.90;48.50;25.00;101126.00;;;;5083900;28;20306;-72
2022/08/23 05:57:14;;;;;;;1.45;1.35;;;25.90;48.40;25.00;101127.00;;;;5080396;28;20050;-72
2022/08/23 06:00:01;;;;;;;2.22;1.52;;;25.90;48.50;25.00;101131.00;;;;5085750;28;20485;-72
2022/08/23 06:02:48;;;;;;;1.80;1.40;;;25.90;48.40;25.00;101126.00;;;;5083845;28;20050;-72
2022/08/23 06:05:39;;;;;;;1.83;1.40;;;25.80;48.30;24.90;101129.00;;;;5070723;28;20074;-72
2022/08/23 06:08:25;;;;;;;2.05;1.60;;;25.90;48.40;25.00;101134.00;;;;5076719;28;20036;-72
2022/08/23 06:11:24;;;;;;;2.05;1.42;;;25.90;48.30;25.00;101128.00;;;;5076751;28;20036;-72
2022/08/23 06:14:10;;;;;;;1.55;1.30;;;25.90;48.30;25.00;101144.00;;;;5069788;28;20505;-72
2022/08/23 06:16:56;;;;;;;2.22;1.50;;;25.90;48.30;25.00;101140.00;;;;5082192;28;20059;-72
2022/08/23 06:19:42;;;;;;;1.88;1.33;;;25.90;48.30;25.00;101140.00;;;;5077911;28;20064;-72
2022/08/23 06:22:29;;;;;;;1.73;1.30;;;25.90;48.30;25.00;101145.00;;;;5086474;28;20489;-72
2022/08/23 06:25:15;;;;;;;1.55;1.27;;;25.90;48.30;25.00;101149.00;;;;5079821;28;20051;-72
2022/08/23 06:28:01;;;;;;;1.80;1.70;;;25.90;48.30;25.00;101153.00;;;;5081370;28;20405;-72
2022/08/23 06:30:47;;;;;;;1.35;1.25;;;25.90;48.30;25.00;101149.00;;;;5086445;28;20039;-72
2022/08/23 06:33:34;;;;;;;2.08;1.20;;;25.90;48.30;25.00;101153.00;;;;5080416;28;20393;-72
2022/08/23 06:36:20;;;;;;;2.25;1.50;;;25.90;48.30;25.00;101151.00;;;;5067666;28;20109;-72
2022/08/23 06:39:07;;;;;;;5.30;1.50;;;26.00;48.30;25.00;101152.00;;;;5080188;28;20036;-72
2022/08/23 06:41:57;;;;;;;1.52;1.25;;;25.90;48.10;25.00;101151.00;;;;5074568;28;20412;-72
2022/08/23 06:44:43;;;;;;;4.78;1.33;;;25.90;48.20;25.00;101155.00;;;;5080052;28;20040;-72
2022/08/23 06:47:30;;;;;;;3.05;1.40;;;26.00;48.30;25.00;101158.00;;;;5083301;28;20036;-72
2022/08/23 06:50:18;;;;;;;2.55;1.35;;;26.00;48.20;25.00;101152.00;;;;5087756;28;20389;-72
2022/08/23 06:53:04;;;;;;;2.05;1.50;;;25.90;48.10;25.00;101156.00;;;;5084723;28;20047;-72
2022/08/23 06:55:50;;;;;;;1.77;1.50;;;25.90;48.00;25.00;101154.00;;;;5065603;28;20519;-72
2022/08/23 06:58:36;;;;;;;2.45;1.50;;;26.00;48.10;25.00;101162.00;;;;5079008;28;20048;-72
2022/08/23 07:01:28;;;;;;;2.33;1.33;;;25.90;48.10;25.00;101160.00;;;;5078875;28;20048;-72
2022/08/23 07:04:20;;;;;;;3.13;1.55;;;25.90;47.90;25.00;101152.00;;;;5081481;28;20362;-72
2022/08/23 07:07:07;;;;;;;2.00;1.30;;;26.00;48.70;25.00;101157.00;;;;5069581;28;20267;-72
2022/08/23 07:09:53;;;;;;;1.40;1.27;;;26.00;48.10;25.00;101157.00;;;;5068019;28;20044;-72
2022/08/23 07:12:41;;;;;;;1.98;1.42;;;26.00;48.10;25.00;101162.00;;;;5085457;28;20059;-72
2022/08/23 07:15:27;;;;;;;1.30;1.20;;;26.00;48.10;25.00;101167.00;;;;5073398;28;20044;-72
2022/08/23 07:18:13;;;;;;;1.38;1.25;;;26.00;48.00;25.00;101169.00;;;;5077478;28;20127;-72
2022/08/23 07:21:01;;;;;;;2.53;1.35;;;26.00;48.00;25.00;101174.00;;;;5087705;28;20082;-72
2022/08/23 07:23:47;;;;;;;2.55;1.30;;;26.00;47.70;25.00;101177.00;;;;5082003;28;20170;-72
2022/08/23 07:26:34;;;;;;;3.05;1.48;;;26.00;47.60;25.00;101169.00;;;;5077602;28;20495;-72
2022/08/23 07:29:21;;;;;;;1.95;1.50;;;25.90;47.50;25.00;101172.00;;;;5071401;28;20036;-72
2022/08/23 07:32:07;;;;;;;2.20;1.10;;;26.00;47.60;25.00;101168.00;;;;5081880;28;20043;-72
2022/08/23 07:34:53;;;;;;;1.52;1.20;;;25.90;47.50;25.00;101176.00;;;;5059639;28;20105;-72
2022/08/23 07:37:39;;;;;;;2.33;1.40;;;26.00;47.50;25.00;101177.00;;;;5086297;28;20039;-72
2022/08/23 07:40:25;;;;;;;2.22;1.40;;;26.00;47.70;25.00;101169.00;;;;5069200;28;20051;-72
2022/08/23 07:43:11;;;;;;;2.90;1.38;;;26.00;47.80;25.00;101170.00;;;;5070713;28;20035;-72
2022/08/23 07:45:58;;;;;;;3.13;1.23;;;26.00;47.60;25.00;101178.00;;;;5088837;28;20040;-72
2022/08/23 07:48:44;;;;;;;3.83;1.23;;;26.00;47.70;25.00;101177.00;;;;5080265;28;20402;-72
2022/08/23 07:51:30;;;;;;;2.22;1.27;;;26.00;47.90;25.00;101183.00;;;;5086757;28;20120;-72
2022/08/23 07:54:17;;;;;;;1.70;1.35;;;26.00;47.80;25.00;101186.00;;;;5084586;28;20068;-72
2022/08/23 07:57:03;;;;;;;3.92;1.45;;;26.00;47.60;25.00;101184.00;;;;5071501;28;20044;-72
2022/08/23 07:59:50;;;;;;;1.60;1.33;;;26.00;47.60;25.00;101197.00;;;;5087527;28;20136;-72
2022/08/23 08:02:36;;;;;;;2.83;1.75;;;26.00;47.80;25.00;101192.00;;;;5084071;28;20040;-72
2022/08/23 08:05:22;;;;;;;3.65;1.58;;;26.00;47.50;25.00;101194.00;;;;5094117;28;20469;-72
2022/08/23 08:08:08;;;;;;;1.20;1.10;;;26.00;48.00;25.00;101190.00;;;;5079168;28;20043;-72
2022/08/23 08:10:54;;;;;;;1.42;1.20;;;26.10;47.80;25.00;101194.00;;;;5100147;28;20043;-72
2022/08/23 08:13:41;;;;;;;1.50;1.40;;;26.00;47.60;25.00;101203.00;;;;5084647;28;20040;-72
2022/08/23 08:16:30;;;;;;;2.03;1.27;;;26.00;47.90;25.00;101199.00;;;;5075727;28;20055;-72
2022/08/23 08:19:17;;;;;;;1.13;1.02;;;26.10;47.40;25.00;101202.00;;;;5076039;28;20164;-72
2022/08/23 08:22:03;;;;;;;2.58;1.60;;;26.10;47.80;25.00;101200.00;;;;5071090;28;20039;-72
2022/08/23 08:24:49;;;;;;;2.85;1.55;;;26.00;47.50;25.00;101206.00;;;;5085221;28;20040;-72
2022/08/23 08:27:36;;;;;;;1.80;1.30;;;26.00;47.50;25.00;101200.00;;;;5087483;28;20385;-72
2022/08/23 08:30:22;;;;;;;3.10;1.40;;;26.00;47.70;25.00;101200.00;;;;5089301;28;20036;-72
2022/08/23 08:33:09;;;;;;;1.92;1.10;;;26.10;47.60;25.00;101190.00;;;;5085319;28;20420;-72
2022/08/23 08:35:56;;;;;;;;;;;26.00;47.20;25.00;101195.00;;;;5093386;28;20036;-72
2022/08/23 08:38:42;;;;;;;4.70;1.30;;;26.00;47.60;25.00;101196.00;;;;5072234;28;20023;-72
2022/08/23 08:42:23;;;;;;;3.67;1.30;;;26.10;47.00;25.00;101194.00;;;;5078800;28;20048;-72
2022/08/23 08:45:10;;;;;;;2.13;1.48;;;25.90;46.70;25.00;101198.00;;;;5076579;28;20078;-72
2022/08/23 08:48:06;;;;;;;1.92;1.33;;;26.00;46.80;25.00;101201.00;;;;5068824;28;20238;-72
2022/08/23 08:51:00;;;;;;;2.33;1.35;;;26.00;46.90;25.00;101192.00;;;;5057259;28;20040;-72
2022/08/23 08:53:46;;;;;;;2.33;1.52;;;26.00;46.70;25.00;101193.00;;;;5060184;28;20500;-72
2022/08/23 08:56:33;;;;;;;4.20;1.52;;;26.10;47.20;25.00;101197.00;;;;5065275;28;20044;-72
2022/08/23 09:00:00;;;;;;;3.20;1.35;;;26.10;47.40;25.00;101192.00;;;;5074383;28;20040;-72
2022/08/23 09:02:46;;;;;;;4.57;1.20;;;26.00;47.10;25.00;101200.00;;;;5073138;28;20044;-72
2022/08/23 09:05:48;;;;;;;2.35;1.10;;;26.00;47.20;25.00;101202.00;;;;5073536;28;20037;-72
2022/08/23 09:09:07;;;;;;;1.83;1.40;;;26.00;47.50;25.00;101207.00;;;;5059027;28;20089;-72
2022/08/23 09:12:29;;;;;;;1.77;1.38;;;26.00;47.00;25.00;101206.00;;;;5082719;28;20277;-72
2022/08/23 09:15:39;;;;;;;1.70;1.55;;;26.10;47.20;25.00;101202.00;;;;5080537;28;20374;-72
2022/08/23 09:18:25;;;;;;;2.88;1.60;;;26.00;47.20;25.00;101208.00;;;;5058844;28;20063;-72
2022/08/23 09:21:11;;;;;;;4.10;1.73;;;26.10;47.10;25.00;101198.00;;;;5074186;28;20036;-72
2022/08/23 09:23:57;;;;;;;1.25;1.15;;;26.10;47.30;25.00;101200.00;;;;5053964;28;20036;-72
2022/08/23 09:26:44;;;;;;;2.85;1.33;;;26.00;47.30;25.00;101206.00;;;;5083584;28;20036;-72
2022/08/23 09:29:35;;;;;;;2.13;1.30;;;26.00;47.50;25.00;101202.00;;;;5072918;28;20040;-72
2022/08/23 09:32:40;;;;;;;3.97;1.50;;;26.10;47.40;25.00;101199.00;;;;5064570;28;20037;-72
2022/08/23 09:35:26;;;;;;;1.92;1.20;;;26.10;47.20;25.00;101199.00;;;;5065638;28;20517;-72
2022/08/23 09:38:19;;;;;;;2.33;1.33;;;26.10;47.20;25.00;101196.00;;;;5079330;28;20127;-72
2022/08/23 09:41:18;;;;;;;3.05;1.38;;;26.10;47.30;25.00;101200.00;;;;5088001;28;20092;-72
2022/08/23 09:44:07;;;;;;;4.70;1.75;;;26.10;46.80;25.00;101197.00;;;;5071650;28;20048;-72
2022/08/23 09:47:03;;;;;;;3.30;1.80;;;26.10;47.10;25.00;101189.00;;;;5057313;28;20379;-72
2022/08/23 09:49:50;;;;;;;2.90;1.50;;;26.10;47.30;25.00;101194.00;;;;5062495;28;20466;-72
2022/08/23 09:52:37;;;;;;;2.55;1.30;;;26.10;47.50;25.00;101182.00;;;;5072169;28;20036;-72
2022/08/23 09:55:30;;;;;;;2.57;1.43;;;26.10;47.30;25.00;101187.00;;;;5068063;28;20036;-72
2022/08/23 09:58:35;;;;;;;1.83;1.27;;;26.10;47.20;25.00;101193.00;;;;5072859;28;20086;-72
2022/08/23 10:01:26;;;;;;;1.63;1.15;;;26.00;47.30;25.00;101196.00;;;;5069785;28;20044;-72
2022/08/23 10:04:35;;;;;;;1.30;1.20;;;26.10;47.50;25.00;101193.00;;;;5066369;28;20509;-72
2022/08/23 10:07:37;;;;;;;2.25;1.30;;;26.10;47.40;25.00;101205.00;;;;5077939;28;20053;-72
2022/08/23 10:10:50;;;;;;;2.25;1.40;;;26.10;47.50;25.00;101193.00;;;;5072401;28;20039;-72
2022/08/23 10:13:38;;;;;;;2.15;1.60;;;26.10;47.50;25.00;101182.00;;;;5069340;28;20035;-72
2022/08/23 10:16:52;;;;;;;2.03;1.42;;;26.10;47.30;25.00;101183.00;;;;5051320;28;20299;-72
2022/08/23 10:19:49;;;;;;;2.35;1.35;;;26.10;47.50;25.00;101189.00;;;;5072457;28;20048;-72
2022/08/23 10:23:11;;;;;;;2.65;1.42;;;26.10;47.70;25.00;101189.00;;;;5073327;28;20040;-72
2022/08/23 10:25:57;;;;;;;2.22;1.27;;;26.10;47.80;25.00;101191.00;;;;5073843;28;20096;-72
2022/08/23 10:32:27;;;;;;;2.42;1.40;;;26.10;47.60;25.00;101183.00;;;;5084953;28;20424;-72
2022/08/23 10:35:37;;;;;;;2.47;1.40;;;26.10;47.50;25.00;101175.00;;;;5063433;28;20531;-72
2022/08/23 10:38:38;;;;;;;1.60;0.90;;;26.10;47.50;25.00;101183.00;;;;5072480;28;20474;-72
2022/08/23 10:41:50;;;;;;;1.42;1.15;;;26.10;47.30;25.00;101178.00;;;;5056872;28;20047;-72
2022/08/23 10:44:53;;;;;;;1.88;1.52;;;26.10;47.30;25.00;101183.00;;;;5077704;28;20032;-72
2022/08/23 10:48:14;;;;;;;1.25;1.10;;;26.10;47.10;25.00;101174.00;;;;5071082;28;20044;-72
2022/08/23 10:51:06;;;;;;;1.83;1.42;;;26.10;47.10;25.00;101180.00;;;;5091269;28;20096;-72
2022/08/23 10:54:17;;;;;;;2.00;1.38;;;26.10;47.00;25.00;101174.00;;;;5066881;28;20051;-72
2022/08/23 10:57:03;;;;;;;1.88;1.40;;;26.10;47.00;25.00;101169.00;;;;5076828;28;20031;-72
2022/08/23 10:59:49;;;;;;;1.83;1.52;;;26.10;47.10;25.00;101167.00;;;;5063661;28;20047;-72
2022/08/23 11:02:54;;;;;;;2.33;1.30;;;26.10;46.70;25.00;101176.00;;;;5068641;28;20040;-72
2022/08/23 11:05:42;;;;;;;2.92;1.38;;;26.10;46.60;25.00;101175.00;;;;5078109;28;20453;-72
2022/08/23 11:08:33;;;;;;;1.95;1.40;;;26.10;47.30;25.00;101171.00;;;;5069967;28;20040;-72
2022/08/23 11:11:48;;;;;;;3.78;1.58;;;26.20;46.70;25.00;101161.00;;;;5060781;28;20036;-72
2022/08/23 11:14:45;;;;;;;1.65;1.25;;;26.10;46.60;25.00;101169.00;;;;5068713;28;20040;-72
2022/08/23 11:17:54;;;;;;;5.40;1.60;;;26.20;46.60;25.00;101166.00;;;;5079226;28;20047;-72
2022/08/23 11:20:49;;;;;;;2.50;1.58;;;26.10;46.30;25.00;101159.00;;;;5089417;28;20600;-72
2022/08/23 11:23:42;;;;;;;3.55;1.63;;;26.20;45.90;25.00;101163.00;;;;5084066;28;20086;-72
2022/08/23 11:26:30;;;;;;;2.38;1.58;;;26.20;46.10;25.10;101164.00;;;;5072439;28;20040;-72
2022/08/23 11:29:22;;;;;;;2.72;1.40;;;26.10;46.20;25.10;101167.00;;;;5086492;28;20051;-72
2022/08/23 11:32:36;;;;;;;1.85;1.40;;;26.20;46.10;25.10;101165.00;;;;5085685;28;20043;-72
2022/08/23 11:35:48;;;;;;;3.72;1.67;;;26.20;46.20;25.10;101151.00;;;;5070363;28;20090;-72
2022/08/23 11:38:46;;;;;;;3.08;1.60;;;26.20;46.40;25.10;101149.00;;;;5076213;28;20043;-72
2022/08/23 11:41:54;;;;;;;4.47;1.60;;;26.20;46.30;25.10;101162.00;;;;5077031;28;20398;-72
2022/08/23 11:44:41;;;;;;;5.13;1.97;;;26.20;46.30;25.10;101154.00;;;;5085052;28;20048;-72
2022/08/23 11:47:38;;;;;;;2.08;1.38;;;26.20;46.30;25.10;101159.00;;;;5072845;28;20071;-72
2022/08/23 11:50:49;;;;;;;1.45;1.35;;;26.30;46.50;25.10;101156.00;;;;5083651;28;20101;-72
2022/08/23 11:53:57;;;;;;;1.40;1.30;;;26.20;46.60;25.10;101164.00;;;;5079767;28;20036;-72
2022/08/23 11:57:13;;;;;;;4.47;1.65;;;26.20;46.20;25.10;101159.00;;;;5061487;28;20132;-73
2022/08/23 12:00:17;;;;;;;3.72;1.77;;;26.30;46.00;25.10;101166.00;;;;5082529;28;20104;-72
2022/08/23 12:03:23;;;;;;;2.17;1.58;;;26.30;45.60;25.10;101159.00;;;;5084905;28;20123;-72
2022/08/23 12:06:54;;;;;;;4.22;1.58;;;26.20;46.00;25.10;101151.00;;;;5080395;28;20119;-72
2022/08/23 12:09:40;;;;;;;2.85;1.45;;;26.20;46.10;25.10;101155.00;;;;5063405;28;20047;-73
2022/08/23 12:12:31;;;;;;;1.45;1.35;;;26.30;46.10;25.10;101152.00;;;;5088186;28;20036;-72
2022/08/23 12:15:18;;;;;;;2.17;1.55;;;26.30;46.00;25.10;101151.00;;;;5067030;28;20381;-73
2022/08/23 12:18:10;;;;;;;3.08;1.45;;;26.20;46.00;25.10;101154.00;;;;5082362;28;20085;-72
2022/08/23 12:21:01;;;;;;;2.90;1.38;;;26.30;46.10;25.20;101152.00;;;;5072003;28;20055;-72
2022/08/23 12:23:53;;;;;;;1.70;1.30;;;26.30;46.20;25.20;101145.00;;;;5072580;28;20047;-72
2022/08/23 12:26:50;;;;;;;3.38;1.67;;;26.30;46.10;25.20;101139.00;;;;5060269;28;20054;-72
2022/08/23 12:30:01;;;;;;;2.03;1.42;;;26.30;46.20;25.20;101145.00;;;;5069931;28;20127;-72
2022/08/23 12:32:52;;;;;;;1.58;1.42;;;26.30;46.20;25.20;101145.00;;;;5072479;28;20040;-72
2022/08/23 12:36:06;;;;;;;3.08;2.00;;;26.30;45.90;25.20;101145.00;;;;5075475;28;20040;-72
2022/08/23 12:39:07;;;;;;;2.45;1.60;;;26.30;46.00;25.20;101152.00;;;;5073124;28;20040;-72
2022/08/23 12:42:15;;;;;;;1.90;1.63;;;26.30;45.70;25.20;101145.00;;;;5072829;28;20044;-72